
<gpx xmlns="http://www.topografix.com/GPX/1/1" xmlns:gpxx="http://www.garmin.com/xmlschemas/GpxExtensions/v3" xmlns:xsi="http://www.w3.org/2001/XMLSchema-instance" version="1.1" creator="Adze - https://getadze.com/" xsi:schemaLocation="http://www.topografix.com/GPX/1/1 http://www.topografix.com/GPX/1/1/gpx.xsd http://www.garmin.com/xmlschemas/GpxExtensions/v3 http://www.garmin.com/xmlschemas/GpxExtensionsv3.xsd">
    <metadata>
        <name>Untitled Document</name>
        <link href="http://www.garmin.com"></link>
        <time>2018-03-08T07:23:46.213Z</time>
    </metadata>
    <wpt lon="100.907046" lat="12.846264">
        <ele>4.000000</ele>
        <name>Ban Nammao</name>
        <cmt>25-JUN-10 15:15:41</cmt>
        <desc>25-JUN-10 15:15:41</desc>
        <sym>Lodging</sym>
        <extensions>
            <gpxx:WaypointExtension xmlns:gpxx="http://www.garmin.com/xmlschemas/GpxExtensions/v3">
                <gpxx:DisplayMode>SymbolOnly</gpxx:DisplayMode>
            </gpxx:WaypointExtension>
        </extensions>
    </wpt>
    <wpt lon="100.953576" lat="12.882532">
        <ele>57.000000</ele>
        <name>June 2010 - Sunday water</name>
        <cmt>27-JUN-10 10:53:16</cmt>
        <desc>27-JUN-10 10:53:16</desc>
        <sym>Drinking Water</sym>
        <extensions>
            <gpxx:WaypointExtension xmlns:gpxx="http://www.garmin.com/xmlschemas/GpxExtensions/v3">
                <gpxx:DisplayMode>SymbolOnly</gpxx:DisplayMode>
            </gpxx:WaypointExtension>
        </extensions>
    </wpt>
    <trk>
        <name>June 2010 - Sunday</name>
        <extensions>
            <gpxx:TrackExtension xmlns:gpxx="http://www.garmin.com/xmlschemas/GpxExtensions/v3">
                <gpxx:DisplayColor>Green</gpxx:DisplayColor>
            </gpxx:TrackExtension>
        </extensions>
        <trkseg>
            <trkpt lon="100.907032" lat="12.846283">
                <ele>10.231201</ele>
                <time>2010-06-27T03:01:57Z</time>
            </trkpt>
            <trkpt lon="100.905947" lat="12.845996">
                <ele>3.982666</ele>
                <time>2010-06-27T03:02:55Z</time>
            </trkpt>
            <trkpt lon="100.905047" lat="12.846967">
                <ele>5.905273</ele>
                <time>2010-06-27T03:03:25Z</time>
            </trkpt>
            <trkpt lon="100.904902" lat="12.847158">
                <ele>5.424561</ele>
                <time>2010-06-27T03:03:30Z</time>
            </trkpt>
            <trkpt lon="100.905014" lat="12.848107">
                <ele>5.424561</ele>
                <time>2010-06-27T03:03:50Z</time>
            </trkpt>
            <trkpt lon="100.905322" lat="12.848716">
                <ele>3.501953</ele>
                <time>2010-06-27T03:04:03Z</time>
            </trkpt>
            <trkpt lon="100.905051" lat="12.849744">
                <ele>2.060059</ele>
                <time>2010-06-27T03:04:22Z</time>
            </trkpt>
            <trkpt lon="100.905066" lat="12.851415">
                <ele>2.060059</ele>
                <time>2010-06-27T03:04:57Z</time>
            </trkpt>
            <trkpt lon="100.906014" lat="12.851459">
                <ele>2.060059</ele>
                <time>2010-06-27T03:05:19Z</time>
            </trkpt>
            <trkpt lon="100.906665" lat="12.851913">
                <ele>2.540649</ele>
                <time>2010-06-27T03:05:33Z</time>
            </trkpt>
            <trkpt lon="100.906897" lat="12.852305">
                <ele>3.021240</ele>
                <time>2010-06-27T03:05:41Z</time>
            </trkpt>
            <trkpt lon="100.907110" lat="12.852428">
                <ele>3.501953</ele>
                <time>2010-06-27T03:05:46Z</time>
            </trkpt>
            <trkpt lon="100.908239" lat="12.852428">
                <ele>2.060059</ele>
                <time>2010-06-27T03:06:08Z</time>
            </trkpt>
            <trkpt lon="100.908156" lat="12.853243">
                <ele>2.540649</ele>
                <time>2010-06-27T03:06:29Z</time>
            </trkpt>
            <trkpt lon="100.908441" lat="12.854109">
                <ele>3.982666</ele>
                <time>2010-06-27T03:06:48Z</time>
            </trkpt>
            <trkpt lon="100.908929" lat="12.854956">
                <ele>3.982666</ele>
                <time>2010-06-27T03:07:07Z</time>
            </trkpt>
            <trkpt lon="100.909007" lat="12.856353">
                <ele>4.943848</ele>
                <time>2010-06-27T03:07:36Z</time>
            </trkpt>
            <trkpt lon="100.908792" lat="12.857276">
                <ele>5.905273</ele>
                <time>2010-06-27T03:07:54Z</time>
            </trkpt>
            <trkpt lon="100.909016" lat="12.857553">
                <ele>6.385864</ele>
                <time>2010-06-27T03:08:04Z</time>
            </trkpt>
            <trkpt lon="100.909863" lat="12.857641">
                <ele>9.269898</ele>
                <time>2010-06-27T03:09:10Z</time>
            </trkpt>
            <trkpt lon="100.909085" lat="12.857490">
                <ele>7.347168</ele>
                <time>2010-06-27T03:09:37Z</time>
            </trkpt>
            <trkpt lon="100.909048" lat="12.857306">
                <ele>6.385864</ele>
                <time>2010-06-27T03:09:42Z</time>
            </trkpt>
            <trkpt lon="100.909309" lat="12.855201">
                <ele>3.501953</ele>
                <time>2010-06-27T03:10:16Z</time>
            </trkpt>
            <trkpt lon="100.909547" lat="12.854925">
                <ele>2.060059</ele>
                <time>2010-06-27T03:10:23Z</time>
            </trkpt>
            <trkpt lon="100.909530" lat="12.854258">
                <ele>2.060059</ele>
                <time>2010-06-27T03:10:35Z</time>
            </trkpt>
            <trkpt lon="100.909682" lat="12.854069">
                <ele>2.540649</ele>
                <time>2010-06-27T03:10:40Z</time>
            </trkpt>
            <trkpt lon="100.910012" lat="12.853916">
                <ele>2.060059</ele>
                <time>2010-06-27T03:10:47Z</time>
            </trkpt>
            <trkpt lon="100.912465" lat="12.853777">
                <ele>3.982666</ele>
                <time>2010-06-27T03:11:36Z</time>
            </trkpt>
            <trkpt lon="100.913434" lat="12.854111">
                <ele>3.021240</ele>
                <time>2010-06-27T03:11:56Z</time>
            </trkpt>
            <trkpt lon="100.913941" lat="12.853954">
                <ele>3.501953</ele>
                <time>2010-06-27T03:12:06Z</time>
            </trkpt>
            <trkpt lon="100.915896" lat="12.854020">
                <ele>2.060059</ele>
                <time>2010-06-27T03:12:47Z</time>
            </trkpt>
            <trkpt lon="100.916067" lat="12.853903">
                <ele>3.982666</ele>
                <time>2010-06-27T03:12:55Z</time>
            </trkpt>
            <trkpt lon="100.916111" lat="12.853905">
                <ele>3.982666</ele>
                <time>2010-06-27T03:13:02Z</time>
            </trkpt>
            <trkpt lon="100.916129" lat="12.854028">
                <ele>5.905273</ele>
                <time>2010-06-27T03:13:16Z</time>
            </trkpt>
            <trkpt lon="100.915870" lat="12.854324">
                <ele>5.424561</ele>
                <time>2010-06-27T03:13:45Z</time>
            </trkpt>
            <trkpt lon="100.914364" lat="12.857987">
                <ele>5.905273</ele>
                <time>2010-06-27T03:15:31Z</time>
            </trkpt>
            <trkpt lon="100.927924" lat="12.860123">
                <ele>14.076416</ele>
                <time>2010-06-27T03:20:00Z</time>
            </trkpt>
            <trkpt lon="100.924672" lat="12.859692">
                <ele>13.115112</ele>
                <time>2010-06-27T03:21:26Z</time>
            </trkpt>
            <trkpt lon="100.924532" lat="12.862434">
                <ele>8.308594</ele>
                <time>2010-06-27T03:22:27Z</time>
            </trkpt>
            <trkpt lon="100.925180" lat="12.862521">
                <ele>9.750610</ele>
                <time>2010-06-27T03:22:42Z</time>
            </trkpt>
            <trkpt lon="100.925264" lat="12.862651">
                <ele>9.750610</ele>
                <time>2010-06-27T03:22:46Z</time>
            </trkpt>
            <trkpt lon="100.925402" lat="12.863792">
                <ele>9.269898</ele>
                <time>2010-06-27T03:23:07Z</time>
            </trkpt>
            <trkpt lon="100.925729" lat="12.863907">
                <ele>10.231201</ele>
                <time>2010-06-27T03:23:14Z</time>
            </trkpt>
            <trkpt lon="100.926550" lat="12.863778">
                <ele>12.153809</ele>
                <time>2010-06-27T03:23:30Z</time>
            </trkpt>
            <trkpt lon="100.927059" lat="12.864067">
                <ele>13.595825</ele>
                <time>2010-06-27T03:23:42Z</time>
            </trkpt>
            <trkpt lon="100.927661" lat="12.864158">
                <ele>13.595825</ele>
                <time>2010-06-27T03:23:55Z</time>
            </trkpt>
            <trkpt lon="100.927832" lat="12.864930">
                <ele>14.557007</ele>
                <time>2010-06-27T03:24:11Z</time>
            </trkpt>
            <trkpt lon="100.927824" lat="12.866437">
                <ele>11.192505</ele>
                <time>2010-06-27T03:24:35Z</time>
            </trkpt>
            <trkpt lon="100.927662" lat="12.866696">
                <ele>9.750610</ele>
                <time>2010-06-27T03:24:40Z</time>
            </trkpt>
            <trkpt lon="100.927817" lat="12.866965">
                <ele>8.789185</ele>
                <time>2010-06-27T03:24:47Z</time>
            </trkpt>
            <trkpt lon="100.929325" lat="12.867411">
                <ele>11.673218</ele>
                <time>2010-06-27T03:25:16Z</time>
            </trkpt>
            <trkpt lon="100.930172" lat="12.868746">
                <ele>13.115112</ele>
                <time>2010-06-27T03:25:46Z</time>
            </trkpt>
            <trkpt lon="100.930963" lat="12.869136">
                <ele>15.999023</ele>
                <time>2010-06-27T03:26:06Z</time>
            </trkpt>
            <trkpt lon="100.930849" lat="12.870394">
                <ele>1.098633</ele>
                <time>2010-06-27T03:26:43Z</time>
            </trkpt>
            <trkpt lon="100.931292" lat="12.871477">
                <ele>9.750610</ele>
                <time>2010-06-27T03:27:58Z</time>
            </trkpt>
            <trkpt lon="100.933055" lat="12.871655">
                <ele>15.037720</ele>
                <time>2010-06-27T03:28:56Z</time>
            </trkpt>
            <trkpt lon="100.933150" lat="12.871082">
                <ele>14.557007</ele>
                <time>2010-06-27T03:29:47Z</time>
            </trkpt>
            <trkpt lon="100.934243" lat="12.870950">
                <ele>14.557007</ele>
                <time>2010-06-27T03:30:29Z</time>
            </trkpt>
            <trkpt lon="100.935310" lat="12.871723">
                <ele>17.441162</ele>
                <time>2010-06-27T03:30:58Z</time>
            </trkpt>
            <trkpt lon="100.936412" lat="12.872306">
                <ele>17.921753</ele>
                <time>2010-06-27T03:31:24Z</time>
            </trkpt>
            <trkpt lon="100.936770" lat="12.872863">
                <ele>21.286377</ele>
                <time>2010-06-27T03:31:39Z</time>
            </trkpt>
            <trkpt lon="100.935683" lat="12.876042">
                <ele>14.557007</ele>
                <time>2010-06-27T03:32:50Z</time>
            </trkpt>
            <trkpt lon="100.936438" lat="12.876343">
                <ele>18.883057</ele>
                <time>2010-06-27T03:33:13Z</time>
            </trkpt>
            <trkpt lon="100.936952" lat="12.876113">
                <ele>18.883057</ele>
                <time>2010-06-27T03:33:26Z</time>
            </trkpt>
            <trkpt lon="100.937732" lat="12.875419">
                <ele>16.479736</ele>
                <time>2010-06-27T03:33:47Z</time>
            </trkpt>
            <trkpt lon="100.938012" lat="12.875389">
                <ele>16.479736</ele>
                <time>2010-06-27T03:33:53Z</time>
            </trkpt>
            <trkpt lon="100.939764" lat="12.875747">
                <ele>17.441162</ele>
                <time>2010-06-27T03:34:42Z</time>
            </trkpt>
            <trkpt lon="100.941005" lat="12.873873">
                <ele>22.728272</ele>
                <time>2010-06-27T03:35:56Z</time>
            </trkpt>
            <trkpt lon="100.941073" lat="12.873538">
                <ele>29.457520</ele>
                <time>2010-06-27T03:36:28Z</time>
            </trkpt>
            <trkpt lon="100.941256" lat="12.873166">
                <ele>27.054321</ele>
                <time>2010-06-27T03:37:20Z</time>
            </trkpt>
            <trkpt lon="100.941501" lat="12.873265">
                <ele>27.534912</ele>
                <time>2010-06-27T03:37:32Z</time>
            </trkpt>
            <trkpt lon="100.941775" lat="12.873740">
                <ele>28.496216</ele>
                <time>2010-06-27T03:37:50Z</time>
            </trkpt>
            <trkpt lon="100.942102" lat="12.873734">
                <ele>28.976929</ele>
                <time>2010-06-27T03:38:02Z</time>
            </trkpt>
            <trkpt lon="100.942058" lat="12.874057">
                <ele>29.457520</ele>
                <time>2010-06-27T03:38:08Z</time>
            </trkpt>
            <trkpt lon="100.942275" lat="12.873726">
                <ele>29.457520</ele>
                <time>2010-06-27T03:38:17Z</time>
            </trkpt>
            <trkpt lon="100.942440" lat="12.874301">
                <ele>28.976929</ele>
                <time>2010-06-27T03:38:29Z</time>
            </trkpt>
            <trkpt lon="100.944005" lat="12.875777">
                <ele>28.015503</ele>
                <time>2010-06-27T03:39:09Z</time>
            </trkpt>
            <trkpt lon="100.944884" lat="12.876577">
                <ele>26.573608</ele>
                <time>2010-06-27T03:39:33Z</time>
            </trkpt>
            <trkpt lon="100.945516" lat="12.876906">
                <ele>25.612305</ele>
                <time>2010-06-27T03:39:48Z</time>
            </trkpt>
            <trkpt lon="100.945639" lat="12.877317">
                <ele>25.131714</ele>
                <time>2010-06-27T03:39:58Z</time>
            </trkpt>
            <trkpt lon="100.945352" lat="12.878380">
                <ele>25.612305</ele>
                <time>2010-06-27T03:40:21Z</time>
            </trkpt>
            <trkpt lon="100.944701" lat="12.879565">
                <ele>24.651001</ele>
                <time>2010-06-27T03:40:48Z</time>
            </trkpt>
            <trkpt lon="100.944677" lat="12.879816">
                <ele>25.131714</ele>
                <time>2010-06-27T03:40:53Z</time>
            </trkpt>
            <trkpt lon="100.945017" lat="12.880729">
                <ele>25.612305</ele>
                <time>2010-06-27T03:41:12Z</time>
            </trkpt>
            <trkpt lon="100.945890" lat="12.882075">
                <ele>25.612305</ele>
                <time>2010-06-27T03:42:54Z</time>
            </trkpt>
            <trkpt lon="100.945855" lat="12.882087">
                <ele>24.651001</ele>
                <time>2010-06-27T03:43:26Z</time>
            </trkpt>
            <trkpt lon="100.946085" lat="12.882102">
                <ele>25.612305</ele>
                <time>2010-06-27T03:43:52Z</time>
            </trkpt>
            <trkpt lon="100.946504" lat="12.881885">
                <ele>27.054321</ele>
                <time>2010-06-27T03:44:20Z</time>
            </trkpt>
            <trkpt lon="100.946826" lat="12.881812">
                <ele>27.534912</ele>
                <time>2010-06-27T03:44:34Z</time>
            </trkpt>
            <trkpt lon="100.947175" lat="12.881551">
                <ele>27.534912</ele>
                <time>2010-06-27T03:45:07Z</time>
            </trkpt>
            <trkpt lon="100.947455" lat="12.881113">
                <ele>29.457520</ele>
                <time>2010-06-27T03:45:37Z</time>
            </trkpt>
            <trkpt lon="100.947515" lat="12.880624">
                <ele>30.899536</ele>
                <time>2010-06-27T03:46:00Z</time>
            </trkpt>
            <trkpt lon="100.947486" lat="12.880025">
                <ele>29.457520</ele>
                <time>2010-06-27T03:46:25Z</time>
            </trkpt>
            <trkpt lon="100.947806" lat="12.880092">
                <ele>31.380127</ele>
                <time>2010-06-27T03:46:41Z</time>
            </trkpt>
            <trkpt lon="100.947907" lat="12.880257">
                <ele>32.822266</ele>
                <time>2010-06-27T03:46:59Z</time>
            </trkpt>
            <trkpt lon="100.947932" lat="12.880270">
                <ele>32.822266</ele>
                <time>2010-06-27T03:47:04Z</time>
            </trkpt>
            <trkpt lon="100.949171" lat="12.880461">
                <ele>36.186768</ele>
                <time>2010-06-27T03:47:54Z</time>
            </trkpt>
            <trkpt lon="100.949629" lat="12.880825">
                <ele>37.148071</ele>
                <time>2010-06-27T03:48:29Z</time>
            </trkpt>
            <trkpt lon="100.949854" lat="12.880765">
                <ele>40.032105</ele>
                <time>2010-06-27T03:48:43Z</time>
            </trkpt>
            <trkpt lon="100.950574" lat="12.880480">
                <ele>41.954712</ele>
                <time>2010-06-27T03:49:18Z</time>
            </trkpt>
            <trkpt lon="100.950967" lat="12.880395">
                <ele>43.877319</ele>
                <time>2010-06-27T03:49:31Z</time>
            </trkpt>
            <trkpt lon="100.951710" lat="12.880367">
                <ele>50.606567</ele>
                <time>2010-06-27T03:49:59Z</time>
            </trkpt>
            <trkpt lon="100.952133" lat="12.880531">
                <ele>53.490479</ele>
                <time>2010-06-27T03:50:17Z</time>
            </trkpt>
            <trkpt lon="100.953033" lat="12.881045">
                <ele>53.490479</ele>
                <time>2010-06-27T03:51:02Z</time>
            </trkpt>
            <trkpt lon="100.953815" lat="12.882189">
                <ele>53.971191</ele>
                <time>2010-06-27T03:51:49Z</time>
            </trkpt>
            <trkpt lon="100.953914" lat="12.882654">
                <ele>53.971191</ele>
                <time>2010-06-27T03:52:06Z</time>
            </trkpt>
            <trkpt lon="100.953708" lat="12.882821">
                <ele>54.451782</ele>
                <time>2010-06-27T03:52:17Z</time>
            </trkpt>
            <trkpt lon="100.953611" lat="12.882571">
                <ele>67.910278</ele>
                <time>2010-06-27T04:04:55Z</time>
            </trkpt>
            <trkpt lon="100.953665" lat="12.882816">
                <ele>62.622925</ele>
                <time>2010-06-27T04:05:31Z</time>
            </trkpt>
            <trkpt lon="100.953799" lat="12.882790">
                <ele>61.661743</ele>
                <time>2010-06-27T04:05:39Z</time>
            </trkpt>
            <trkpt lon="100.953948" lat="12.882529">
                <ele>60.219727</ele>
                <time>2010-06-27T04:05:51Z</time>
            </trkpt>
            <trkpt lon="100.953605" lat="12.882427">
                <ele>59.739136</ele>
                <time>2010-06-27T04:05:58Z</time>
            </trkpt>
            <trkpt lon="100.953158" lat="12.881152">
                <ele>57.335815</ele>
                <time>2010-06-27T04:06:37Z</time>
            </trkpt>
            <trkpt lon="100.951842" lat="12.880269">
                <ele>52.048584</ele>
                <time>2010-06-27T04:07:21Z</time>
            </trkpt>
            <trkpt lon="100.949572" lat="12.880824">
                <ele>49.164551</ele>
                <time>2010-06-27T04:09:13Z</time>
            </trkpt>
            <trkpt lon="100.949143" lat="12.880495">
                <ele>47.241821</ele>
                <time>2010-06-27T04:09:32Z</time>
            </trkpt>
            <trkpt lon="100.948920" lat="12.880035">
                <ele>44.838623</ele>
                <time>2010-06-27T04:09:49Z</time>
            </trkpt>
            <trkpt lon="100.948981" lat="12.877351">
                <ele>35.225464</ele>
                <time>2010-06-27T04:10:57Z</time>
            </trkpt>
            <trkpt lon="100.949314" lat="12.876934">
                <ele>35.706055</ele>
                <time>2010-06-27T04:11:14Z</time>
            </trkpt>
            <trkpt lon="100.949390" lat="12.876794">
                <ele>34.744873</ele>
                <time>2010-06-27T04:11:24Z</time>
            </trkpt>
            <trkpt lon="100.948988" lat="12.875955">
                <ele>36.667481</ele>
                <time>2010-06-27T04:12:14Z</time>
            </trkpt>
            <trkpt lon="100.948418" lat="12.875640">
                <ele>36.186768</ele>
                <time>2010-06-27T04:12:37Z</time>
            </trkpt>
            <trkpt lon="100.948332" lat="12.875470">
                <ele>34.744873</ele>
                <time>2010-06-27T04:12:51Z</time>
            </trkpt>
            <trkpt lon="100.948511" lat="12.875039">
                <ele>34.264160</ele>
                <time>2010-06-27T04:13:07Z</time>
            </trkpt>
            <trkpt lon="100.948371" lat="12.873573">
                <ele>35.225464</ele>
                <time>2010-06-27T04:14:04Z</time>
            </trkpt>
            <trkpt lon="100.948345" lat="12.873186">
                <ele>33.302856</ele>
                <time>2010-06-27T04:14:20Z</time>
            </trkpt>
            <trkpt lon="100.949019" lat="12.870674">
                <ele>40.032105</ele>
                <time>2010-06-27T04:15:46Z</time>
            </trkpt>
            <trkpt lon="100.949316" lat="12.869808">
                <ele>38.590088</ele>
                <time>2010-06-27T04:16:14Z</time>
            </trkpt>
            <trkpt lon="100.949344" lat="12.869222">
                <ele>37.148071</ele>
                <time>2010-06-27T04:16:28Z</time>
            </trkpt>
            <trkpt lon="100.949029" lat="12.868726">
                <ele>38.109375</ele>
                <time>2010-06-27T04:16:42Z</time>
            </trkpt>
            <trkpt lon="100.948865" lat="12.866893">
                <ele>32.341553</ele>
                <time>2010-06-27T04:17:20Z</time>
            </trkpt>
            <trkpt lon="100.948044" lat="12.866416">
                <ele>32.341553</ele>
                <time>2010-06-27T04:17:39Z</time>
            </trkpt>
            <trkpt lon="100.947591" lat="12.865672">
                <ele>31.380127</ele>
                <time>2010-06-27T04:17:55Z</time>
            </trkpt>
            <trkpt lon="100.947331" lat="12.864526">
                <ele>29.938110</ele>
                <time>2010-06-27T04:18:15Z</time>
            </trkpt>
            <trkpt lon="100.946224" lat="12.863126">
                <ele>29.457520</ele>
                <time>2010-06-27T04:18:53Z</time>
            </trkpt>
            <trkpt lon="100.945866" lat="12.862409">
                <ele>26.092896</ele>
                <time>2010-06-27T04:19:09Z</time>
            </trkpt>
            <trkpt lon="100.945426" lat="12.862223">
                <ele>24.170288</ele>
                <time>2010-06-27T04:19:21Z</time>
            </trkpt>
            <trkpt lon="100.945255" lat="12.861583">
                <ele>23.689575</ele>
                <time>2010-06-27T04:19:37Z</time>
            </trkpt>
            <trkpt lon="100.945602" lat="12.860861">
                <ele>21.766968</ele>
                <time>2010-06-27T04:19:53Z</time>
            </trkpt>
            <trkpt lon="100.945939" lat="12.860582">
                <ele>22.247559</ele>
                <time>2010-06-27T04:20:01Z</time>
            </trkpt>
            <trkpt lon="100.946378" lat="12.859925">
                <ele>23.208984</ele>
                <time>2010-06-27T04:20:16Z</time>
            </trkpt>
            <trkpt lon="100.946519" lat="12.859770">
                <ele>22.728272</ele>
                <time>2010-06-27T04:20:20Z</time>
            </trkpt>
            <trkpt lon="100.946736" lat="12.859244">
                <ele>22.247559</ele>
                <time>2010-06-27T04:20:31Z</time>
            </trkpt>
            <trkpt lon="100.946923" lat="12.859085">
                <ele>21.766968</ele>
                <time>2010-06-27T04:20:36Z</time>
            </trkpt>
            <trkpt lon="100.947663" lat="12.859015">
                <ele>21.766968</ele>
                <time>2010-06-27T04:20:53Z</time>
            </trkpt>
            <trkpt lon="100.947683" lat="12.857439">
                <ele>18.402344</ele>
                <time>2010-06-27T04:21:29Z</time>
            </trkpt>
            <trkpt lon="100.947445" lat="12.856341">
                <ele>17.921753</ele>
                <time>2010-06-27T04:21:49Z</time>
            </trkpt>
            <trkpt lon="100.947453" lat="12.856089">
                <ele>16.960449</ele>
                <time>2010-06-27T04:21:56Z</time>
            </trkpt>
            <trkpt lon="100.948329" lat="12.855540">
                <ele>19.363770</ele>
                <time>2010-06-27T04:22:26Z</time>
            </trkpt>
            <trkpt lon="100.948428" lat="12.855353">
                <ele>19.363770</ele>
                <time>2010-06-27T04:22:32Z</time>
            </trkpt>
            <trkpt lon="100.949463" lat="12.855139">
                <ele>19.363770</ele>
                <time>2010-06-27T04:23:09Z</time>
            </trkpt>
            <trkpt lon="100.949957" lat="12.854291">
                <ele>19.844360</ele>
                <time>2010-06-27T04:23:45Z</time>
            </trkpt>
            <trkpt lon="100.949711" lat="12.854115">
                <ele>19.363770</ele>
                <time>2010-06-27T04:24:08Z</time>
            </trkpt>
            <trkpt lon="100.949576" lat="12.853522">
                <ele>39.551269</ele>
                <time>2010-06-27T04:24:44Z</time>
            </trkpt>
            <trkpt lon="100.949688" lat="12.853364">
                <ele>42.916016</ele>
                <time>2010-06-27T04:24:49Z</time>
            </trkpt>
            <trkpt lon="100.950063" lat="12.852488">
                <ele>32.822266</ele>
                <time>2010-06-27T04:25:15Z</time>
            </trkpt>
            <trkpt lon="100.950696" lat="12.851710">
                <ele>26.573608</ele>
                <time>2010-06-27T04:25:46Z</time>
            </trkpt>
            <trkpt lon="100.950830" lat="12.851187">
                <ele>24.170288</ele>
                <time>2010-06-27T04:26:00Z</time>
            </trkpt>
            <trkpt lon="100.950793" lat="12.850426">
                <ele>20.805664</ele>
                <time>2010-06-27T04:26:18Z</time>
            </trkpt>
            <trkpt lon="100.950022" lat="12.849049">
                <ele>22.728272</ele>
                <time>2010-06-27T04:26:52Z</time>
            </trkpt>
            <trkpt lon="100.949836" lat="12.848652">
                <ele>21.766968</ele>
                <time>2010-06-27T04:27:03Z</time>
            </trkpt>
            <trkpt lon="100.950659" lat="12.847837">
                <ele>19.844360</ele>
                <time>2010-06-27T04:28:34Z</time>
            </trkpt>
            <trkpt lon="100.950837" lat="12.847756">
                <ele>18.883057</ele>
                <time>2010-06-27T04:28:48Z</time>
            </trkpt>
            <trkpt lon="100.950176" lat="12.846690">
                <ele>19.363770</ele>
                <time>2010-06-27T04:29:59Z</time>
            </trkpt>
            <trkpt lon="100.950267" lat="12.846191">
                <ele>19.844360</ele>
                <time>2010-06-27T04:30:39Z</time>
            </trkpt>
            <trkpt lon="100.950005" lat="12.845688">
                <ele>17.441162</ele>
                <time>2010-06-27T04:31:29Z</time>
            </trkpt>
            <trkpt lon="100.950069" lat="12.845556">
                <ele>15.037720</ele>
                <time>2010-06-27T04:32:47Z</time>
            </trkpt>
            <trkpt lon="100.950814" lat="12.844502">
                <ele>16.479736</ele>
                <time>2010-06-27T04:34:02Z</time>
            </trkpt>
            <trkpt lon="100.951727" lat="12.843959">
                <ele>17.441162</ele>
                <time>2010-06-27T04:34:59Z</time>
            </trkpt>
            <trkpt lon="100.952056" lat="12.843620">
                <ele>17.441162</ele>
                <time>2010-06-27T04:35:41Z</time>
            </trkpt>
            <trkpt lon="100.952582" lat="12.843892">
                <ele>16.960449</ele>
                <time>2010-06-27T04:36:29Z</time>
            </trkpt>
            <trkpt lon="100.952966" lat="12.844489">
                <ele>16.960449</ele>
                <time>2010-06-27T04:36:57Z</time>
            </trkpt>
            <trkpt lon="100.953479" lat="12.844313">
                <ele>18.402344</ele>
                <time>2010-06-27T04:37:14Z</time>
            </trkpt>
            <trkpt lon="100.953671" lat="12.843559">
                <ele>15.518433</ele>
                <time>2010-06-27T04:37:35Z</time>
            </trkpt>
            <trkpt lon="100.955473" lat="12.843659">
                <ele>17.921753</ele>
                <time>2010-06-27T04:38:19Z</time>
            </trkpt>
            <trkpt lon="100.955725" lat="12.843561">
                <ele>16.960449</ele>
                <time>2010-06-27T04:38:26Z</time>
            </trkpt>
            <trkpt lon="100.955800" lat="12.842623">
                <ele>16.960449</ele>
                <time>2010-06-27T04:38:47Z</time>
            </trkpt>
            <trkpt lon="100.956173" lat="12.841959">
                <ele>16.960449</ele>
                <time>2010-06-27T04:39:02Z</time>
            </trkpt>
            <trkpt lon="100.957316" lat="12.841053">
                <ele>20.805664</ele>
                <time>2010-06-27T04:39:36Z</time>
            </trkpt>
            <trkpt lon="100.957849" lat="12.840610">
                <ele>18.883057</ele>
                <time>2010-06-27T04:39:54Z</time>
            </trkpt>
            <trkpt lon="100.958153" lat="12.839706">
                <ele>19.844360</ele>
                <time>2010-06-27T04:40:17Z</time>
            </trkpt>
            <trkpt lon="100.958014" lat="12.839430">
                <ele>25.131714</ele>
                <time>2010-06-27T04:41:35Z</time>
            </trkpt>
            <trkpt lon="100.956990" lat="12.838895">
                <ele>25.612305</ele>
                <time>2010-06-27T04:42:12Z</time>
            </trkpt>
            <trkpt lon="100.956910" lat="12.838791">
                <ele>25.612305</ele>
                <time>2010-06-27T04:42:16Z</time>
            </trkpt>
            <trkpt lon="100.957140" lat="12.838336">
                <ele>25.612305</ele>
                <time>2010-06-27T04:42:29Z</time>
            </trkpt>
            <trkpt lon="100.957074" lat="12.838229">
                <ele>26.092896</ele>
                <time>2010-06-27T04:42:33Z</time>
            </trkpt>
            <trkpt lon="100.957020" lat="12.838140">
                <ele>26.092896</ele>
                <time>2010-06-27T04:42:46Z</time>
            </trkpt>
            <trkpt lon="100.957189" lat="12.838284">
                <ele>24.651001</ele>
                <time>2010-06-27T04:42:58Z</time>
            </trkpt>
            <trkpt lon="100.957434" lat="12.837925">
                <ele>24.651001</ele>
                <time>2010-06-27T04:43:19Z</time>
            </trkpt>
            <trkpt lon="100.957106" lat="12.838377">
                <ele>25.131714</ele>
                <time>2010-06-27T04:43:56Z</time>
            </trkpt>
            <trkpt lon="100.956988" lat="12.838957">
                <ele>26.573608</ele>
                <time>2010-06-27T04:45:09Z</time>
            </trkpt>
            <trkpt lon="100.956933" lat="12.839123">
                <ele>23.208984</ele>
                <time>2010-06-27T04:45:53Z</time>
            </trkpt>
            <trkpt lon="100.956477" lat="12.839252">
                <ele>23.689575</ele>
                <time>2010-06-27T04:46:33Z</time>
            </trkpt>
            <trkpt lon="100.955678" lat="12.839183">
                <ele>25.612305</ele>
                <time>2010-06-27T04:47:17Z</time>
            </trkpt>
            <trkpt lon="100.954811" lat="12.838792">
                <ele>28.015503</ele>
                <time>2010-06-27T04:47:50Z</time>
            </trkpt>
            <trkpt lon="100.954142" lat="12.838229">
                <ele>28.976929</ele>
                <time>2010-06-27T04:48:25Z</time>
            </trkpt>
            <trkpt lon="100.952852" lat="12.837644">
                <ele>30.418823</ele>
                <time>2010-06-27T04:49:03Z</time>
            </trkpt>
            <trkpt lon="100.951522" lat="12.837458">
                <ele>28.976929</ele>
                <time>2010-06-27T04:49:28Z</time>
            </trkpt>
            <trkpt lon="100.950472" lat="12.836667">
                <ele>25.612305</ele>
                <time>2010-06-27T04:49:54Z</time>
            </trkpt>
            <trkpt lon="100.949611" lat="12.836477">
                <ele>22.247559</ele>
                <time>2010-06-27T04:50:13Z</time>
            </trkpt>
            <trkpt lon="100.947814" lat="12.836456">
                <ele>24.170288</ele>
                <time>2010-06-27T04:50:54Z</time>
            </trkpt>
            <trkpt lon="100.947026" lat="12.836185">
                <ele>24.170288</ele>
                <time>2010-06-27T04:51:11Z</time>
            </trkpt>
            <trkpt lon="100.945867" lat="12.835637">
                <ele>19.844360</ele>
                <time>2010-06-27T04:51:35Z</time>
            </trkpt>
            <trkpt lon="100.944747" lat="12.835835">
                <ele>18.883057</ele>
                <time>2010-06-27T04:51:57Z</time>
            </trkpt>
            <trkpt lon="100.943809" lat="12.836241">
                <ele>18.402344</ele>
                <time>2010-06-27T04:52:18Z</time>
            </trkpt>
            <trkpt lon="100.943446" lat="12.836584">
                <ele>16.960449</ele>
                <time>2010-06-27T04:52:30Z</time>
            </trkpt>
            <trkpt lon="100.943080" lat="12.836594">
                <ele>16.479736</ele>
                <time>2010-06-27T04:52:38Z</time>
            </trkpt>
            <trkpt lon="100.941944" lat="12.836204">
                <ele>14.076416</ele>
                <time>2010-06-27T04:53:02Z</time>
            </trkpt>
            <trkpt lon="100.941659" lat="12.836292">
                <ele>13.595825</ele>
                <time>2010-06-27T04:53:08Z</time>
            </trkpt>
            <trkpt lon="100.940990" lat="12.836707">
                <ele>11.673218</ele>
                <time>2010-06-27T04:53:24Z</time>
            </trkpt>
            <trkpt lon="100.940409" lat="12.837251">
                <ele>10.711792</ele>
                <time>2010-06-27T04:53:41Z</time>
            </trkpt>
            <trkpt lon="100.940303" lat="12.837335">
                <ele>10.231201</ele>
                <time>2010-06-27T04:53:44Z</time>
            </trkpt>
            <trkpt lon="100.940319" lat="12.838506">
                <ele>12.634399</ele>
                <time>2010-06-27T04:54:12Z</time>
            </trkpt>
            <trkpt lon="100.939895" lat="12.839797">
                <ele>14.076416</ele>
                <time>2010-06-27T04:54:46Z</time>
            </trkpt>
            <trkpt lon="100.939324" lat="12.840567">
                <ele>13.595825</ele>
                <time>2010-06-27T04:55:10Z</time>
            </trkpt>
            <trkpt lon="100.938078" lat="12.840778">
                <ele>13.595825</ele>
                <time>2010-06-27T04:55:38Z</time>
            </trkpt>
            <trkpt lon="100.937344" lat="12.841253">
                <ele>15.037720</ele>
                <time>2010-06-27T04:55:57Z</time>
            </trkpt>
            <trkpt lon="100.936806" lat="12.841479">
                <ele>13.595825</ele>
                <time>2010-06-27T04:56:12Z</time>
            </trkpt>
            <trkpt lon="100.937289" lat="12.843005">
                <ele>14.557007</ele>
                <time>2010-06-27T04:56:51Z</time>
            </trkpt>
            <trkpt lon="100.937535" lat="12.843720">
                <ele>12.634399</ele>
                <time>2010-06-27T04:57:08Z</time>
            </trkpt>
            <trkpt lon="100.938247" lat="12.844903">
                <ele>13.115112</ele>
                <time>2010-06-27T04:57:38Z</time>
            </trkpt>
            <trkpt lon="100.937914" lat="12.845958">
                <ele>15.037720</ele>
                <time>2010-06-27T04:58:00Z</time>
            </trkpt>
            <trkpt lon="100.937526" lat="12.846726">
                <ele>14.557007</ele>
                <time>2010-06-27T04:58:25Z</time>
            </trkpt>
            <trkpt lon="100.937074" lat="12.846628">
                <ele>13.595825</ele>
                <time>2010-06-27T04:58:56Z</time>
            </trkpt>
            <trkpt lon="100.936668" lat="12.845921">
                <ele>11.673218</ele>
                <time>2010-06-27T05:00:24Z</time>
            </trkpt>
            <trkpt lon="100.935967" lat="12.845743">
                <ele>15.037720</ele>
                <time>2010-06-27T05:01:11Z</time>
            </trkpt>
            <trkpt lon="100.935878" lat="12.845513">
                <ele>13.595825</ele>
                <time>2010-06-27T05:01:55Z</time>
            </trkpt>
            <trkpt lon="100.934153" lat="12.845342">
                <ele>13.115112</ele>
                <time>2010-06-27T05:02:58Z</time>
            </trkpt>
            <trkpt lon="100.933675" lat="12.845516">
                <ele>11.673218</ele>
                <time>2010-06-27T05:03:19Z</time>
            </trkpt>
            <trkpt lon="100.933150" lat="12.845971">
                <ele>15.999023</ele>
                <time>2010-06-27T05:05:03Z</time>
            </trkpt>
            <trkpt lon="100.932453" lat="12.846419">
                <ele>11.673218</ele>
                <time>2010-06-27T05:05:50Z</time>
            </trkpt>
            <trkpt lon="100.931763" lat="12.846603">
                <ele>10.711792</ele>
                <time>2010-06-27T05:06:09Z</time>
            </trkpt>
            <trkpt lon="100.931125" lat="12.847054">
                <ele>9.750610</ele>
                <time>2010-06-27T05:06:29Z</time>
            </trkpt>
            <trkpt lon="100.930938" lat="12.848531">
                <ele>12.634399</ele>
                <time>2010-06-27T05:07:06Z</time>
            </trkpt>
            <trkpt lon="100.929704" lat="12.848701">
                <ele>7.827881</ele>
                <time>2010-06-27T05:07:37Z</time>
            </trkpt>
            <trkpt lon="100.929460" lat="12.848563">
                <ele>8.789185</ele>
                <time>2010-06-27T05:07:47Z</time>
            </trkpt>
            <trkpt lon="100.929447" lat="12.848415">
                <ele>10.711792</ele>
                <time>2010-06-27T05:07:51Z</time>
            </trkpt>
            <trkpt lon="100.929282" lat="12.847773">
                <ele>5.424561</ele>
                <time>2010-06-27T05:08:07Z</time>
            </trkpt>
            <trkpt lon="100.928443" lat="12.847798">
                <ele>4.943848</ele>
                <time>2010-06-27T05:08:26Z</time>
            </trkpt>
            <trkpt lon="100.927634" lat="12.848119">
                <ele>6.385864</ele>
                <time>2010-06-27T05:08:46Z</time>
            </trkpt>
            <trkpt lon="100.926530" lat="12.848012">
                <ele>7.347168</ele>
                <time>2010-06-27T05:09:08Z</time>
            </trkpt>
            <trkpt lon="100.925709" lat="12.847584">
                <ele>7.827881</ele>
                <time>2010-06-27T05:09:26Z</time>
            </trkpt>
            <trkpt lon="100.924331" lat="12.847681">
                <ele>17.921753</ele>
                <time>2010-06-27T05:12:13Z</time>
            </trkpt>
            <trkpt lon="100.923399" lat="12.847589">
                <ele>8.789185</ele>
                <time>2010-06-27T05:12:54Z</time>
            </trkpt>
            <trkpt lon="100.922742" lat="12.847943">
                <ele>7.827881</ele>
                <time>2010-06-27T05:13:08Z</time>
            </trkpt>
            <trkpt lon="100.922012" lat="12.847905">
                <ele>7.347168</ele>
                <time>2010-06-27T05:13:22Z</time>
            </trkpt>
            <trkpt lon="100.920012" lat="12.847255">
                <ele>6.385864</ele>
                <time>2010-06-27T05:13:59Z</time>
            </trkpt>
            <trkpt lon="100.919311" lat="12.846306">
                <ele>7.347168</ele>
                <time>2010-06-27T05:14:23Z</time>
            </trkpt>
            <trkpt lon="100.919389" lat="12.845728">
                <ele>5.424561</ele>
                <time>2010-06-27T05:14:34Z</time>
            </trkpt>
            <trkpt lon="100.918964" lat="12.842710">
                <ele>4.943848</ele>
                <time>2010-06-27T05:15:31Z</time>
            </trkpt>
            <trkpt lon="100.918729" lat="12.842603">
                <ele>4.943848</ele>
                <time>2010-06-27T05:15:37Z</time>
            </trkpt>
            <trkpt lon="100.917100" lat="12.842639">
                <ele>4.463257</ele>
                <time>2010-06-27T05:16:09Z</time>
            </trkpt>
            <trkpt lon="100.916840" lat="12.842275">
                <ele>4.463257</ele>
                <time>2010-06-27T05:16:20Z</time>
            </trkpt>
            <trkpt lon="100.916490" lat="12.842072">
                <ele>4.463257</ele>
                <time>2010-06-27T05:16:29Z</time>
            </trkpt>
            <trkpt lon="100.916361" lat="12.841801">
                <ele>4.463257</ele>
                <time>2010-06-27T05:16:36Z</time>
            </trkpt>
            <trkpt lon="100.916363" lat="12.841659">
                <ele>3.982666</ele>
                <time>2010-06-27T05:16:39Z</time>
            </trkpt>
            <trkpt lon="100.916185" lat="12.841524">
                <ele>3.501953</ele>
                <time>2010-06-27T05:16:44Z</time>
            </trkpt>
            <trkpt lon="100.913721" lat="12.840787">
                <ele>3.982666</ele>
                <time>2010-06-27T05:17:34Z</time>
            </trkpt>
            <trkpt lon="100.913483" lat="12.840595">
                <ele>3.982666</ele>
                <time>2010-06-27T05:17:59Z</time>
            </trkpt>
            <trkpt lon="100.911517" lat="12.840081">
                <ele>4.463257</ele>
                <time>2010-06-27T05:18:56Z</time>
            </trkpt>
            <trkpt lon="100.910957" lat="12.841848">
                <ele>6.385864</ele>
                <time>2010-06-27T05:19:36Z</time>
            </trkpt>
            <trkpt lon="100.910767" lat="12.841943">
                <ele>5.424561</ele>
                <time>2010-06-27T05:19:44Z</time>
            </trkpt>
            <trkpt lon="100.910889" lat="12.842145">
                <ele>4.463257</ele>
                <time>2010-06-27T05:19:58Z</time>
            </trkpt>
            <trkpt lon="100.909685" lat="12.846549">
                <ele>6.385864</ele>
                <time>2010-06-27T05:21:34Z</time>
            </trkpt>
            <trkpt lon="100.909630" lat="12.846761">
                <ele>6.385864</ele>
                <time>2010-06-27T05:21:38Z</time>
            </trkpt>
            <trkpt lon="100.909360" lat="12.846843">
                <ele>3.501953</ele>
                <time>2010-06-27T05:21:45Z</time>
            </trkpt>
            <trkpt lon="100.907027" lat="12.846283">
                <ele>7.347168</ele>
                <time>2010-06-27T05:23:09Z</time>
            </trkpt>
        </trkseg>
    </trk>
</gpx>